Flight Track Log - Related Links

Times and Time Zones

All times are in EDT time to prevent confusion due to time zone crossing. See the N528QS flight status page for this flight to view local times or setup timezone preferences in your user account.

Time Position Orientation Groundspeed Altitude Reporting Facility
EDT Latitude Longitude Course Direction KTS MPH feet Rate Location/Type
Fri 03:13:26 PM 39.6186 -107.0208 260° West 223 257 11,900  Level Denver Center
Fri 03:14:28 PM 39.6981 -107.0069 North 321 369 14,000 3,242 Climbing Denver Center
Fri 03:15:30 PM 39.7700 -107.0400 341° North 334 384 18,600 3,726 Climbing Denver Center
Fri 03:16:00 PM 40.0014 -106.5389 95° East  Level FlightAware Approximate
Fri 03:16:32 PM 39.7942 -107.1478 286° West 314 361 21,700  Level Denver Center
Fri 03:17:00 PM 40.0238 -106.6714 283° West  Level Estimated
Fri 03:17:34 PM 39.8403 -107.2828 294° West 372 428 24,400  Level Denver Center
Fri 03:18:37 PM 39.8961 -107.4311 296° West 410 472 26,400 2,064 Climbing Denver Center
Fri 03:19:39 PM 39.9442 -107.5700 294° West 438 504 28,700 3,048 Climbing Denver Center
Fri 03:20:41 PM 39.9717 -107.7439 282° West 438 504 32,700 3,339 Climbing Denver Center
Fri 03:21:43 PM 39.9828 -107.8889 276° West 422 486 35,600 1,597 Climbing Denver Center
Fri 03:22:45 PM 39.9953 -108.0547 276° West 415 478 36,000 242 Climbing Denver Center
Fri 03:23:47 PM 40.0086 -108.2036 277° West 429 494 36,100 1,016 Climbing Denver Center
Fri 03:24:49 PM 40.0231 -108.3758 276° West 432 497 38,100 1,932 Climbing Denver Center
Fri 03:25:45 PM 40.0342 -108.5219 276° West 426 490 39,900 958 Climbing Salt Lake Center
Fri 03:26:48 PM 40.0450 -108.6656 276° West 421 484 40,000 48 Climbing Salt Lake Center
Fri 03:27:50 PM 40.0575 -108.8317 276° West 416 479 40,000  Level Salt Lake Center
Fri 03:28:52 PM 40.0683 -108.9756 276° West 419 482 40,000  Level Salt Lake Center
Fri 03:29:54 PM 40.0808 -109.1431 276° West 418 481 40,000  Level Salt Lake Center
Fri 03:30:56 PM 40.0881 -109.2878 274° West 418 481 40,000  Level Salt Lake Center
Fri 03:31:58 PM 40.0933 -109.4575 272° West 420 483 40,000  Level Salt Lake Center
Fri 03:33:01 PM 40.0975 -109.6022 272° West 418 481 40,000 -774 Level Salt Lake Center
Fri 03:34:02 PM 40.1025 -109.7706 272° West 417 480 38,400 -1,756 Descending Salt Lake Center
Fri 03:35:04 PM 40.1069 -109.9139 272° West 415 478 36,400 -1,984 Descending Salt Lake Center
Fri 03:36:06 PM 40.1119 -110.0858 272° West 423 487 34,300 -1,935 Descending Salt Lake Center
Fri 03:37:08 PM 40.1153 -110.2386 272° West 437 503 32,400 -1,839 Descending Salt Lake Center
Fri 03:38:10 PM 40.1189 -110.3942 272° West 445 512 30,500 -2,129 Descending Salt Lake Center
Fri 03:39:12 PM 40.1242 -110.5814 272° West 461 531 28,000 -2,177 Descending Salt Lake Center
Fri 03:40:14 PM 40.1281 -110.7453 272° West 470 541 26,000 -2,081 Descending Salt Lake Center
Fri 03:41:16 PM 40.1308 -110.9294 271° West 457 526 23,700 -2,129 Descending Salt Lake Center
Fri 03:42:18 PM 40.1353 -111.1031 272° West 449 517 21,600 -1,984 Descending Salt Lake Center
Fri 03:43:20 PM 40.1375 -111.2444 271° West 400 460 19,600 -1,742 Descending Salt Lake Center
Fri 03:44:22 PM 40.1328 -111.3703 267° West 355 409 18,000 -1,355 Descending Salt Lake Center
Fri 03:45:24 PM 40.1308 -111.4847 269° West 320 368 16,800 -1,016 Descending Salt Lake Center
Fri 03:46:26 PM 40.1461 -111.5944 280° West 309 356 15,900 -1,174 Descending Salt Lake Center
Fri 03:46:56 PM 40.1667 -111.6644 291° West 308 354 15,000 -1,429 Descending Salt Lake Center
Fri 03:47:29 PM 40.1861 -111.6928 312° West 303 349 14,400 -632 Descending Salt Lake Center
Fri 03:48:31 PM 40.2564 -111.7856 315° West 299 344 14,000 -574 Descending Salt Lake Center
Fri 03:49:03 PM 40.2856 -111.8178 320° Northwest 276 318 13,500 -1,258 Descending Salt Lake Center
Fri 03:49:33 PM 40.3183 -111.8369 336° Northwest 266 306 12,700 -1,672 Descending Salt Lake Center
Fri 03:50:04 PM 40.3478 -111.8697 320° Northwest 268 308 11,800 -1,645 Descending Salt Lake Center
Fri 03:50:35 PM 40.3808 -111.8881 337° Northwest 264 304 11,000 -645 Descending Salt Lake Center
Fri 03:51:37 PM 40.4442 -111.9253 336° Northwest 245 282 10,800 -774 Descending Salt Lake Center
Fri 03:52:39 PM 40.5100 -111.9322 355° North 240 276 9,400 -1,452 Descending Salt Lake Center
Fri 03:53:41 PM 40.5783 -111.9406 355° North 248 285 7,800 -1,403 Descending Salt Lake Center
Fri 03:54:43 PM 40.6539 -111.9494 355° North 222 255 6,500 -1,016 Descending Salt Lake Center
Fri 03:55:45 PM 40.7017 -111.9553 355° North 177 204 5,700 -774 Descending Salt Lake Center
Fri 03:56:47 PM 40.7406 -111.9600 355° North 141 162 4,900 -677 Descending Salt Lake Center
Fri 03:57:49 PM 40.7753 -111.9625 357° North 128 147 4,300 -581 Descending Salt Lake Center
Fri 03:59:00 PM 40.7833 -111.9667 North  Level FlightAware Approximate
Fri 04:06:00 PM 40.7884 -111.9778 North  Level Estimated

Login

Don't have an account? Register now (free) for customized features, flight alerts, and more!